Time,TemperatureF,DewpointF,PressureIn,WindDirection,WindDirectionDegrees,WindSpeedMPH,WindSpeedGustMPH,Humidity,HourlyPrecipIn,Conditions,Clouds,dailyrainin,SolarRadiationWatts/m^2,SoftwareType,DateUTC
2013-10-29 00:08:00,34.1,20.0,29.61,WSW,257,9.0,11.0,56,0.00,,,0.00,0,weatherlink.com 1.10,2013-10-29 06:08:00,
2013-10-29 00:23:00,34.2,20.0,29.60,South,189,7.0,12.0,56,0.00,,,0.00,0,weatherlink.com 1.10,2013-10-29 06:23:00,
2013-10-29 00:38:00,34.3,20.0,29.60,South,181,3.0,9.0,55,0.00,,,0.00,0,weatherlink.com 1.10,2013-10-29 06:38:00,
2013-10-29 00:53:00,34.2,19.0,29.61,SW,235,1.0,8.0,54,0.00,,,0.00,0,weatherlink.com 1.10,2013-10-29 06:53:00,
2013-10-29 01:08:00,34.0,19.0,29.61,WNW,288,3.0,8.0,54,0.00,,,0.00,0,weatherlink.com 1.10,2013-10-29 07:08:00,
2013-10-29 01:23:00,33.9,19.0,29.61,West,281,2.0,11.0,54,0.00,,,0.00,0,weatherlink.com 1.10,2013-10-29 07:23:00,
2013-10-29 01:38:00,33.7,18.0,29.61,West,275,3.0,6.0,54,0.00,,,0.00,0,weatherlink.com 1.10,2013-10-29 07:38:00,
2013-10-29 01:53:00,33.7,18.0,29.61,SSE,154,1.0,11.0,52,0.00,,,0.00,0,weatherlink.com 1.10,2013-10-29 07:53:00,
2013-10-29 02:08:00,34.0,17.0,29.61,WNW,300,2.0,11.0,50,0.00,,,0.00,0,weatherlink.com 1.10,2013-10-29 08:08:00,
2013-10-29 02:23:00,33.9,16.0,29.61,WSW,247,8.0,10.0,48,0.00,,,0.00,0,weatherlink.com 1.10,2013-10-29 08:23:00,
2013-10-29 02:38:00,34.1,16.0,29.61,ENE,65,2.0,13.0,47,0.00,,,0.00,0,weatherlink.com 1.10,2013-10-29 08:38:00,
2013-10-29 02:53:00,33.9,15.0,29.61,SE,135,2.0,8.0,47,0.00,,,0.00,0,weatherlink.com 1.10,2013-10-29 08:53:00,
2013-10-29 03:08:00,33.6,16.0,29.61,WSW,240,1.0,7.0,48,0.00,,,0.00,0,weatherlink.com 1.10,2013-10-29 09:08:00,
2013-10-29 03:23:00,33.0,16.0,29.61,SW,214,0.0,5.0,49,0.00,,,0.00,0,weatherlink.com 1.10,2013-10-29 09:23:00,
2013-10-29 03:38:00,32.8,15.0,29.61,WSW,250,0.0,5.0,49,0.00,,,0.00,0,weatherlink.com 1.10,2013-10-29 09:38:00,
2013-10-29 03:53:00,32.6,15.0,29.60,SW,227,1.0,6.0,48,0.00,,,0.00,0,weatherlink.com 1.10,2013-10-29 09:53:00,
2013-10-29 04:08:00,32.7,14.0,29.60,WSW,239,1.0,7.0,47,0.00,,,0.00,0,weatherlink.com 1.10,2013-10-29 10:08:00,
2013-10-29 04:23:00,33.2,15.0,29.60,SSW,213,2.0,7.0,47,0.00,,,0.00,0,weatherlink.com 1.10,2013-10-29 10:23:00,
2013-10-29 04:38:00,33.2,15.0,29.59,SW,225,2.0,7.0,47,0.00,,,0.00,0,weatherlink.com 1.10,2013-10-29 10:38:00,
2013-10-29 04:53:00,33.2,14.0,29.59,SSE,162,2.0,9.0,46,0.00,,,0.00,0,weatherlink.com 1.10,2013-10-29 10:53:00,
2013-10-29 05:08:00,33.0,15.0,29.59,SSE,162,7.0,9.0,47,0.00,,,0.00,0,weatherlink.com 1.10,2013-10-29 11:08:00,
2013-10-29 05:23:00,32.8,14.0,29.59,South,176,2.0,10.0,47,0.00,,,0.00,0,weatherlink.com 1.10,2013-10-29 11:23:00,
2013-10-29 05:38:00,32.5,14.0,29.59,SW,223,2.0,11.0,47,0.00,,,0.00,0,weatherlink.com 1.10,2013-10-29 11:38:00,
2013-10-29 05:53:00,32.8,14.0,29.58,SSW,206,5.0,10.0,46,0.00,,,0.00,0,weatherlink.com 1.10,2013-10-29 11:53:00,
2013-10-29 06:08:00,32.4,14.0,29.58,SSW,201,4.0,11.0,47,0.00,,,0.00,0,weatherlink.com 1.10,2013-10-29 12:08:00,
2013-10-29 06:23:00,32.6,15.0,29.59,SW,218,6.0,13.0,48,0.00,,,0.00,0,weatherlink.com 1.10,2013-10-29 12:23:00,
2013-10-29 06:38:00,32.4,15.0,29.58,South,180,3.0,10.0,49,0.00,,,0.00,0,weatherlink.com 1.10,2013-10-29 12:38:00,
2013-10-29 06:53:00,32.4,15.0,29.58,SSE,163,3.0,9.0,49,0.00,,,0.00,0,weatherlink.com 1.10,2013-10-29 12:53:00,
2013-10-29 07:08:00,32.2,15.0,29.59,WSW,252,3.0,11.0,50,0.00,,,0.00,0,weatherlink.com 1.10,2013-10-29 13:08:00,
2013-10-29 07:23:00,32.2,15.0,29.59,South,182,5.0,10.0,50,0.00,,,0.00,0,weatherlink.com 1.10,2013-10-29 13:23:00,
2013-10-29 07:39:00,32.2,15.0,29.59,WSW,251,5.0,12.0,50,0.00,,,0.00,18,weatherlink.com 1.10,2013-10-29 13:39:00,
2013-10-29 07:54:00,33.2,16.0,29.60,SW,236,5.0,12.0,49,0.00,,,0.00,53,weatherlink.com 1.10,2013-10-29 13:54:00,
2013-10-29 08:09:00,34.5,16.0,29.60,SSW,205,3.0,8.0,47,0.00,,,0.00,98,weatherlink.com 1.10,2013-10-29 14:09:00,
2013-10-29 08:24:00,34.3,16.0,29.61,SE,142,1.0,9.0,47,0.00,,,0.00,120,weatherlink.com 1.10,2013-10-29 14:24:00,
2013-10-29 08:39:00,35.1,16.0,29.61,WNW,297,3.0,9.0,46,0.00,,,0.00,246,weatherlink.com 1.10,2013-10-29 14:39:00,
2013-10-29 08:54:00,37.1,16.0,29.61,SSW,196,4.0,11.0,43,0.00,,,0.00,251,weatherlink.com 1.10,2013-10-29 14:54:00,
2013-10-29 09:09:00,36.6,16.0,29.62,SW,214,5.0,9.0,43,0.00,,,0.00,237,weatherlink.com 1.10,2013-10-29 15:09:00,
2013-10-29 09:24:00,37.1,16.0,29.62,SSW,194,1.0,9.0,42,0.00,,,0.00,229,weatherlink.com 1.10,2013-10-29 15:24:00,
2013-10-29 09:39:00,38.0,16.0,29.62,SE,141,3.0,9.0,41,0.00,,,0.00,352,weatherlink.com 1.10,2013-10-29 15:39:00,
2013-10-29 09:54:00,38.7,17.0,29.62,SSW,196,9.0,9.0,41,0.00,,,0.00,394,weatherlink.com 1.10,2013-10-29 15:54:00,
2013-10-29 10:09:00,39.0,16.0,29.62,SSE,168,3.0,10.0,40,0.00,,,0.00,439,weatherlink.com 1.10,2013-10-29 16:09:00,
2013-10-29 10:24:00,39.3,17.0,29.61,SW,223,3.0,14.0,41,0.00,,,0.00,476,weatherlink.com 1.10,2013-10-29 16:24:00,
2013-10-29 10:39:00,40.1,17.0,29.61,SW,223,4.0,11.0,39,0.00,,,0.00,512,weatherlink.com 1.10,2013-10-29 16:39:00,
2013-10-29 10:54:00,40.4,17.0,29.59,SSE,160,6.0,11.0,39,0.00,,,0.00,543,weatherlink.com 1.10,2013-10-29 16:54:00,
2013-10-29 11:09:00,41.1,17.0,29.58,SSE,158,3.0,14.0,38,0.00,,,0.00,573,weatherlink.com 1.10,2013-10-29 17:09:00,
2013-10-29 11:24:00,41.4,17.0,29.58,WSW,252,4.0,14.0,38,0.00,,,0.00,599,weatherlink.com 1.10,2013-10-29 17:24:00,
2013-10-29 11:39:00,41.6,17.0,29.59,West,273,6.0,10.0,37,0.00,,,0.00,622,weatherlink.com 1.10,2013-10-29 17:39:00,
2013-10-29 11:55:00,41.6,17.0,29.58,SSW,199,6.0,13.0,37,0.00,,,0.00,645,weatherlink.com 1.10,2013-10-29 17:55:00,
2013-10-29 12:10:00,42.6,18.0,29.58,SW,224,5.0,10.0,37,0.00,,,0.00,654,weatherlink.com 1.10,2013-10-29 18:10:00,
2013-10-29 12:25:00,42.9,18.0,29.58,South,169,5.0,15.0,37,0.00,,,0.00,615,weatherlink.com 1.10,2013-10-29 18:25:00,
2013-10-29 12:40:00,42.9,17.0,29.57,SE,146,2.0,16.0,36,0.00,,,0.00,617,weatherlink.com 1.10,2013-10-29 18:40:00,
2013-10-29 12:55:00,41.1,16.0,29.57,WSW,245,6.0,14.0,37,0.00,,,0.00,241,weatherlink.com 1.10,2013-10-29 18:55:00,
2013-10-29 13:10:00,40.0,17.0,29.57,SW,214,3.0,16.0,39,0.00,,,0.00,244,weatherlink.com 1.10,2013-10-29 19:10:00,
2013-10-29 13:25:00,42.5,18.0,29.55,SW,221,1.0,7.0,37,0.00,,,0.00,454,weatherlink.com 1.10,2013-10-29 19:25:00,
2013-10-29 13:40:00,42.6,17.0,29.54,WSW,248,2.0,15.0,35,0.00,,,0.00,251,weatherlink.com 1.10,2013-10-29 19:40:00,
2013-10-29 13:55:00,41.1,15.0,29.54,SSW,205,4.0,14.0,34,0.00,,,0.00,181,weatherlink.com 1.10,2013-10-29 19:55:00,
2013-10-29 14:10:00,41.0,14.0,29.54,South,169,5.0,13.0,34,0.00,,,0.00,216,weatherlink.com 1.10,2013-10-29 20:10:00,
2013-10-29 14:25:00,40.9,13.0,29.54,SE,134,10.0,17.0,32,0.00,,,0.00,178,weatherlink.com 1.10,2013-10-29 20:25:00,
2013-10-29 14:40:00,40.2,13.0,29.54,SE,131,13.0,20.0,33,0.00,,,0.00,176,weatherlink.com 1.10,2013-10-29 20:40:00,
2013-10-29 14:55:00,40.2,12.0,29.54,SSE,155,8.0,18.0,32,0.00,,,0.00,165,weatherlink.com 1.10,2013-10-29 20:55:00,
2013-10-29 15:10:00,40.0,12.0,29.55,SSE,159,12.0,19.0,32,0.00,,,0.00,105,weatherlink.com 1.10,2013-10-29 21:10:00,
2013-10-29 15:25:00,40.0,12.0,29.55,SE,138,9.0,23.0,32,0.00,,,0.00,107,weatherlink.com 1.10,2013-10-29 21:25:00,
2013-10-29 15:40:00,39.7,13.0,29.55,SSE,163,11.0,18.0,34,0.00,,,0.00,100,weatherlink.com 1.10,2013-10-29 21:40:00,
2013-10-29 15:55:00,39.2,14.0,29.56,SW,227,2.0,15.0,35,0.00,,,0.00,95,weatherlink.com 1.10,2013-10-29 21:55:00,
2013-10-29 16:10:00,38.6,14.0,29.56,SSE,154,6.0,18.0,36,0.00,,,0.00,53,weatherlink.com 1.10,2013-10-29 22:10:00,
2013-10-29 16:25:00,38.2,15.0,29.56,SSE,161,16.0,18.0,39,0.00,,,0.00,58,weatherlink.com 1.10,2013-10-29 22:25:00,
2013-10-29 16:40:00,37.3,16.0,29.57,SE,146,7.0,17.0,42,0.00,,,0.00,47,weatherlink.com 1.10,2013-10-29 22:40:00,
2013-10-29 16:55:00,36.7,17.0,29.57,SE,133,3.0,19.0,44,0.00,,,0.00,46,weatherlink.com 1.10,2013-10-29 22:55:00,
2013-10-29 17:10:00,37.4,15.0,29.57,SSW,211,7.0,10.0,40,0.00,,,0.00,39,weatherlink.com 1.10,2013-10-29 23:10:00,
2013-10-29 17:25:00,37.6,15.0,29.57,West,270,3.0,11.0,39,0.00,,,0.00,14,weatherlink.com 1.10,2013-10-29 23:25:00,
2013-10-29 17:40:00,37.5,15.0,29.57,NW,310,0.0,7.0,40,0.00,,,0.00,9,weatherlink.com 1.10,2013-10-29 23:40:00,
2013-10-29 17:55:00,37.3,15.0,29.57,SSW,200,4.0,5.0,41,0.00,,,0.00,0,weatherlink.com 1.10,2013-10-29 23:55:00,
2013-10-29 18:10:00,36.9,15.0,29.56,South,176,2.0,5.0,41,0.00,,,0.00,0,weatherlink.com 1.10,2013-10-30 00:10:00,
2013-10-29 18:25:00,36.3,15.0,29.56,South,171,3.0,5.0,42,0.00,,,0.00,0,weatherlink.com 1.10,2013-10-30 00:25:00,
2013-10-29 18:40:00,36.1,15.0,29.56,SSE,153,3.0,7.0,42,0.00,,,0.00,0,weatherlink.com 1.10,2013-10-30 00:40:00,
2013-10-29 18:55:00,36.2,15.0,29.57,SE,144,5.0,10.0,42,0.00,,,0.00,0,weatherlink.com 1.10,2013-10-30 00:55:00,
2013-10-29 19:10:00,36.3,16.0,29.55,SSE,160,8.0,10.0,43,0.00,,,0.00,0,weatherlink.com 1.10,2013-10-30 01:10:00,
2013-10-29 19:25:00,36.2,17.0,29.56,ESE,123,9.0,13.0,46,0.00,,,0.00,0,weatherlink.com 1.10,2013-10-30 01:25:00,
2013-10-29 19:40:00,36.1,18.0,29.56,South,171,6.0,15.0,48,0.00,,,0.00,0,weatherlink.com 1.10,2013-10-30 01:40:00,
2013-10-29 19:55:00,36.1,18.0,29.55,SE,129,7.0,14.0,49,0.00,,,0.00,0,weatherlink.com 1.10,2013-10-30 01:55:00,
2013-10-29 20:10:00,35.9,19.0,29.55,East,94,14.0,20.0,51,0.00,,,0.00,0,weatherlink.com 1.10,2013-10-30 02:10:00,
2013-10-29 20:25:00,35.2,21.0,29.56,SE,141,10.0,19.0,57,0.00,,,0.00,0,weatherlink.com 1.10,2013-10-30 02:25:00,
2013-10-29 20:40:00,32.9,24.0,29.55,SSE,153,11.0,26.0,71,0.00,,,0.00,0,weatherlink.com 1.10,2013-10-30 02:40:00,
2013-10-29 20:55:00,32.6,24.0,29.55,SSE,153,13.0,16.0,70,0.00,,,0.00,0,weatherlink.com 1.10,2013-10-30 02:55:00,
2013-10-29 21:10:00,32.9,24.0,29.55,SSE,161,11.0,19.0,70,0.00,,,0.00,0,weatherlink.com 1.10,2013-10-30 03:10:00,
2013-10-29 21:25:00,31.2,26.0,29.54,SE,136,7.0,15.0,81,0.00,,,0.00,0,weatherlink.com 1.10,2013-10-30 03:25:00,
2013-10-29 21:40:00,30.2,27.0,29.55,East,92,6.0,14.0,86,0.00,,,0.00,0,weatherlink.com 1.10,2013-10-30 03:40:00,
2013-10-29 21:55:00,28.9,26.0,29.54,East,98,6.0,9.0,87,0.00,,,0.00,0,weatherlink.com 1.10,2013-10-30 03:55:00,
2013-10-29 22:10:00,27.9,25.0,29.51,SE,126,7.0,10.0,88,0.00,,,0.00,0,weatherlink.com 1.10,2013-10-30 04:10:00,
2013-10-29 22:25:00,28.3,26.0,29.51,SSE,163,13.0,15.0,89,0.00,,,0.00,0,weatherlink.com 1.10,2013-10-30 04:25:00,
2013-10-29 22:40:00,28.5,26.0,29.49,ESE,105,10.0,13.0,89,0.00,,,0.00,0,weatherlink.com 1.10,2013-10-30 04:40:00,
2013-10-29 22:55:00,28.8,26.0,29.49,East,94,11.0,18.0,89,0.00,,,0.00,0,weatherlink.com 1.10,2013-10-30 04:55:00,
2013-10-29 23:10:00,28.9,26.0,29.47,SE,143,11.0,19.0,89,0.00,,,0.00,0,weatherlink.com 1.10,2013-10-30 05:10:00,
2013-10-29 23:27:00,29.5,26.0,29.46,ESE,122,7.0,12.0,88,0.00,,,0.00,0,weatherlink.com 1.10,2013-10-30 05:27:00,
2013-10-29 23:41:00,29.7,27.0,29.46,SE,140,4.0,13.0,89,0.00,,,0.00,0,weatherlink.com 1.10,2013-10-30 05:41:00,
2013-10-29 23:56:00,29.8,27.0,29.47,SSE,164,8.0,17.0,89,0.01,,,0.01,0,weatherlink.com 1.10,2013-10-30 05:56:00,